createdAt,value
2019-05-11T00:03:30.036Z,15.30
2019-05-11T00:08:33.732Z,14.37
2019-05-11T00:13:37.040Z,14.57
2019-05-11T00:18:40.338Z,14.13
2019-05-11T00:23:44.303Z,12.90
2019-05-11T00:28:47.867Z,13.83
2019-05-11T00:33:52.083Z,13.50
2019-05-11T00:38:55.385Z,15.10
2019-05-11T00:43:58.924Z,13.93
2019-05-11T00:49:02.902Z,14.67
2019-05-11T00:54:06.168Z,14.43
2019-05-11T00:59:21.321Z,13.40
2019-05-11T01:04:17.671Z,14.23
2019-05-11T01:09:20.952Z,14.17
2019-05-11T01:14:24.242Z,14.80
2019-05-11T01:19:27.525Z,13.70
2019-05-11T01:24:31.176Z,13.90
2019-05-11T01:29:34.713Z,13.17
2019-05-11T01:34:38.251Z,13.33
2019-05-11T01:39:41.755Z,16.20
2019-05-11T01:44:45.046Z,15.47
2019-05-11T01:49:48.337Z,15.97
2019-05-11T01:54:51.642Z,17.10
2019-05-11T01:59:54.904Z,16.63
2019-05-11T02:05:15.959Z,17.10
2019-05-11T02:10:19.240Z,17.70
2019-05-11T02:15:22.528Z,17.83
2019-05-11T02:20:25.816Z,16.17
2019-05-11T02:25:29.245Z,17.17
2019-05-11T02:30:32.549Z,13.43
2019-05-11T02:35:35.829Z,14.43
2019-05-11T02:40:39.216Z,14.17
2019-05-11T02:45:43.242Z,11.77
2019-05-11T02:50:46.599Z,14.40
2019-05-11T02:55:49.880Z,15.23
2019-05-11T03:00:53.410Z,16.43
2019-05-11T03:05:56.692Z,14.63
2019-05-11T03:10:59.983Z,17.23
2019-05-11T03:16:03.264Z,17.80
2019-05-11T03:21:06.681Z,17.83
2019-05-11T03:26:09.904Z,21.50
2019-05-11T03:31:13.202Z,22.37
2019-05-11T03:36:16.489Z,22.03
2019-05-11T03:41:19.778Z,22.83
2019-05-11T03:46:23.069Z,23.13
2019-05-11T03:51:26.594Z,24.13
2019-05-11T03:56:29.879Z,23.00
2019-05-11T04:01:33.168Z,23.73
2019-05-11T04:06:36.451Z,24.30
2019-05-11T04:11:39.984Z,24.80
2019-05-11T04:16:43.520Z,23.40
2019-05-11T04:21:46.801Z,25.47
2019-05-11T04:26:50.081Z,26.03
2019-05-11T04:31:53.361Z,25.77
2019-05-11T04:36:56.646Z,25.37
2019-05-11T04:42:00.203Z,25.13
2019-05-11T04:47:03.491Z,25.00
2019-05-11T04:52:07.013Z,26.73
2019-05-11T04:57:10.549Z,27.03
2019-05-11T05:02:13.839Z,27.97
2019-05-11T05:07:17.128Z,28.70
2019-05-11T05:12:20.406Z,28.50
2019-05-11T05:17:23.937Z,29.17
2019-05-11T05:22:28.194Z,30.80
2019-05-11T05:27:31.853Z,31.03
2019-05-11T05:32:35.373Z,29.90
2019-05-11T05:37:38.926Z,31.00
2019-05-11T05:42:42.215Z,33.20
2019-05-11T05:47:45.761Z,33.80
2019-05-11T05:52:51.022Z,32.10
2019-05-11T05:57:54.308Z,34.33
2019-05-11T06:02:57.840Z,27.47
2019-05-11T06:08:01.311Z,33.10
2019-05-11T06:13:04.882Z,35.83
2019-05-11T06:18:08.139Z,35.80
2019-05-11T06:23:16.786Z,35.50
2019-05-11T06:28:20.321Z,35.00
2019-05-11T06:33:23.853Z,35.03
2019-05-11T06:38:27.148Z,39.80
2019-05-11T06:43:30.671Z,36.83
2019-05-11T06:48:34.193Z,35.70
2019-05-11T06:53:37.726Z,36.30
2019-05-11T06:58:41.263Z,35.80
2019-05-11T07:03:44.788Z,37.93
2019-05-11T07:08:48.312Z,40.80
2019-05-11T07:13:51.604Z,39.20
2019-05-11T07:18:54.884Z,43.40
2019-05-11T07:23:58.435Z,39.77
2019-05-11T07:29:01.753Z,40.27
2019-05-11T07:34:08.151Z,33.33
2019-05-11T07:39:11.757Z,35.13
2019-05-11T07:44:15.280Z,33.43
2019-05-11T07:49:18.891Z,33.73
2019-05-11T07:54:22.441Z,31.97
2019-05-11T07:59:25.970Z,32.77
2019-05-11T08:04:31.124Z,31.30
2019-05-11T08:09:34.404Z,28.70
2019-05-11T08:14:55.803Z,29.07
2019-05-11T08:19:42.717Z,23.97
2019-05-11T08:24:48.135Z,25.53
2019-05-11T08:29:51.018Z,29.97
2019-05-11T08:34:54.308Z,31.73
2019-05-11T08:39:58.489Z,33.27
2019-05-11T08:45:16.125Z,30.63
2019-05-11T08:50:08.124Z,25.93
2019-05-11T08:55:12.032Z,30.67
2019-05-11T09:00:17.892Z,27.03
2019-05-11T09:05:22.580Z,22.90
2019-05-11T09:10:28.045Z,23.27
2019-05-11T09:15:36.817Z,20.97
2019-05-11T09:20:37.798Z,19.97
2019-05-11T09:25:41.291Z,20.00
2019-05-11T09:30:44.896Z,20.63
2019-05-11T09:35:52.992Z,21.27
2019-05-11T09:40:58.557Z,18.50
2019-05-11T09:46:01.732Z,18.47
2019-05-11T09:51:05.024Z,18.80
2019-05-11T09:56:08.313Z,19.63
2019-05-11T10:01:13.500Z,17.00
2019-05-11T10:06:19.074Z,18.20
2019-05-11T10:11:23.612Z,18.17
2019-05-11T10:16:28.112Z,15.73
2019-05-11T10:21:32.469Z,16.77
2019-05-11T10:26:38.267Z,16.10
2019-05-11T10:31:41.016Z,15.50
2019-05-11T10:36:48.464Z,13.93
2019-05-11T10:41:51.353Z,14.57
2019-05-11T10:46:54.754Z,16.40
2019-05-11T10:51:58.800Z,14.87
2019-05-11T10:57:02.258Z,15.70
2019-05-11T11:02:07.910Z,15.33
2019-05-11T11:07:10.560Z,15.00
2019-05-11T11:12:13.910Z,15.60
2019-05-11T11:17:19.141Z,16.43
2019-05-11T11:22:36.211Z,15.40
2019-05-11T11:27:29.253Z,13.90
2019-05-11T11:32:32.752Z,12.93
2019-05-11T11:37:38.706Z,14.20
2019-05-11T11:42:44.509Z,12.37
2019-05-11T11:47:49.285Z,13.83
2019-05-11T11:52:57.874Z,13.87
2019-05-11T11:58:03.069Z,19.23
2019-05-11T12:03:08.035Z,21.07
2019-05-11T12:08:15.550Z,21.63
2019-05-11T12:13:19.037Z,18.30
2019-05-11T12:18:22.308Z,20.03
2019-05-11T12:23:25.592Z,15.43
2019-05-11T12:28:28.888Z,10.57
2019-05-11T12:33:32.185Z,8.97
2019-05-11T12:38:35.471Z,5.97
2019-05-11T12:43:38.811Z,6.57
2019-05-11T12:48:42.330Z,5.83
2019-05-11T12:53:47.633Z,4.77
2019-05-11T12:58:51.084Z,5.53
2019-05-11T13:03:54.611Z,5.33
2019-05-11T13:08:58.765Z,5.70
2019-05-11T13:14:02.062Z,5.33
2019-05-11T13:19:08.359Z,5.33
2019-05-11T13:24:12.046Z,5.40
2019-05-11T13:29:15.327Z,5.00
2019-05-11T13:34:55.168Z,6.00
2019-05-11T13:40:10.519Z,6.40
2019-05-11T13:45:14.111Z,5.70
2019-05-11T13:50:17.738Z,5.00
2019-05-11T13:55:21.149Z,5.73
2019-05-11T14:00:24.436Z,4.63
2019-05-11T14:05:28.450Z,4.90
2019-05-11T14:10:31.869Z,5.63
2019-05-11T14:15:37.554Z,4.80
2019-05-11T14:20:40.163Z,4.77
2019-05-11T14:25:43.442Z,5.27
2019-05-11T14:30:48.602Z,4.23
2019-05-11T14:35:51.743Z,4.80
2019-05-11T14:40:55.026Z,5.30
2019-05-11T14:45:58.300Z,5.27
2019-05-11T14:51:01.833Z,5.17
2019-05-11T14:56:08.079Z,5.03
2019-05-11T15:01:11.007Z,5.67
2019-05-11T15:06:14.526Z,4.63
2019-05-11T15:11:19.156Z,4.80
2019-05-11T15:16:22.843Z,4.90
2019-05-11T15:21:28.093Z,5.73
2019-05-11T15:26:31.120Z,4.70
2019-05-11T15:31:34.633Z,5.30
2019-05-11T15:36:38.751Z,6.30
2019-05-11T15:41:42.475Z,5.90
2019-05-11T15:46:47.967Z,5.40
2019-05-11T15:51:51.271Z,5.00
2019-05-11T15:56:54.825Z,5.73
2019-05-11T16:01:58.288Z,5.83
2019-05-11T16:07:01.825Z,6.27
2019-05-11T16:12:05.355Z,5.10
2019-05-11T16:17:08.842Z,5.80
2019-05-11T16:22:12.359Z,4.97
2019-05-11T16:27:18.162Z,5.60
2019-05-11T16:32:20.672Z,5.23
2019-05-11T16:37:24.881Z,5.57
2019-05-11T16:42:30.655Z,4.97
2019-05-11T16:47:34.071Z,5.10
2019-05-11T16:52:38.653Z,5.00
2019-05-11T16:57:42.128Z,5.33
2019-05-11T17:02:45.666Z,5.37
2019-05-11T17:07:48.989Z,4.93
2019-05-11T17:12:52.603Z,5.60
2019-05-11T17:17:55.902Z,7.20
2019-05-11T17:22:59.241Z,4.40
2019-05-11T17:28:02.780Z,3.63
2019-05-11T17:33:08.667Z,2.80
2019-05-11T17:38:11.150Z,1.40
2019-05-11T17:43:14.818Z,1.30
2019-05-11T17:48:18.184Z,1.07
2019-05-11T17:53:21.693Z,1.20
2019-05-11T17:58:24.973Z,1.50
2019-05-11T18:03:30.636Z,0.87
2019-05-11T18:08:34.892Z,1.00
2019-05-11T18:13:38.943Z,1.43
2019-05-11T18:18:43.715Z,1.07
2019-05-11T18:23:48.083Z,1.00
2019-05-11T18:28:51.654Z,1.07
2019-05-11T18:33:54.946Z,1.60
2019-05-11T18:38:58.242Z,0.87
2019-05-11T18:44:01.756Z,1.03
2019-05-11T18:49:05.029Z,1.13
2019-05-11T18:54:09.261Z,1.20
2019-05-11T18:59:12.994Z,0.97
2019-05-11T19:04:20.839Z,1.20
2019-05-11T19:09:24.355Z,1.00
2019-05-11T19:14:28.223Z,1.30
2019-05-11T19:19:31.852Z,0.80
2019-05-11T19:24:35.128Z,0.90
2019-05-11T19:29:40.279Z,0.97
2019-05-11T19:34:48.366Z,1.03
2019-05-11T19:39:51.586Z,0.93
2019-05-11T19:44:56.753Z,0.87
2019-05-11T19:50:00.271Z,0.70
2019-05-11T19:55:04.437Z,0.90
2019-05-11T20:00:18.650Z,1.13
2019-05-11T20:05:18.805Z,1.03
2019-05-11T20:10:22.074Z,0.80
2019-05-11T20:15:25.354Z,0.80
2019-05-11T20:20:28.690Z,1.23
2019-05-11T20:25:32.153Z,0.87
2019-05-11T20:30:35.425Z,1.07
2019-05-11T20:35:41.712Z,0.87
2019-05-11T20:40:45.235Z,0.60
2019-05-11T20:45:50.220Z,0.93
2019-05-11T20:50:53.743Z,0.70
2019-05-11T20:55:58.243Z,0.77
2019-05-11T21:01:01.791Z,0.90
2019-05-11T21:06:05.219Z,1.00
2019-05-11T21:11:08.738Z,0.80
2019-05-11T21:16:12.291Z,0.90
2019-05-11T21:21:15.568Z,0.90
2019-05-11T21:26:19.023Z,1.30
2019-05-11T21:31:24.759Z,0.97
2019-05-11T21:36:28.402Z,0.97
2019-05-11T21:41:31.717Z,1.03
2019-05-11T21:46:34.995Z,0.73
2019-05-11T21:51:38.271Z,0.80
2019-05-11T21:56:41.551Z,0.90
2019-05-11T22:01:48.524Z,0.90
2019-05-11T22:06:49.850Z,0.70
2019-05-11T22:11:56.208Z,0.77
2019-05-11T22:17:02.492Z,0.70
2019-05-11T22:22:20.730Z,1.10
2019-05-11T22:27:10.028Z,1.07
2019-05-11T22:32:13.371Z,1.40
2019-05-11T22:37:16.650Z,1.10
2019-05-11T22:42:20.175Z,1.10
2019-05-11T22:47:23.449Z,1.07
2019-05-11T22:52:36.116Z,1.03
2019-05-11T22:57:31.990Z,0.90
2019-05-11T23:02:37.465Z,1.10
2019-05-11T23:07:41.505Z,0.90
2019-05-11T23:12:44.957Z,1.07
2019-05-11T23:17:48.231Z,1.03
2019-05-11T23:22:57.827Z,1.13
2019-05-11T23:27:58.781Z,1.30
2019-05-11T23:33:01.724Z,1.17
2019-05-11T23:38:04.998Z,1.23
2019-05-11T23:43:08.998Z,1.30
2019-05-11T23:48:12.424Z,1.10
2019-05-11T23:53:17.638Z,1.23
2019-05-11T23:58:20.697Z,1.40
